Gentle Leader — C6WY9 — position and weather

sailwx.info

Track history (hours):
 
Tides and Currents Weather Stations Pressure Air Temp Water Temp Dewpoint Dewpoint Depression Visibility Wind Speed Wind Dir Waves Ship Positions

Gentle Leader

Last reported at 2015-Mar-11 00:09 UTC. Time now 2015-Mar-30 04:29 UTC.
Position N 31°21' E 032°20'.
Warning: this ship's position is 19 days out of date.

Length 200 m; draft 9.1 m.

Type: Cargo ship. MMSI: 311003300.

Date/timePositionNaut miles runAvg speedWind from/ knotsBaromVisibWave heightAir tempDewpointWater temp
2015-Mar-11 00:09N 31°21' E 032°20'  
2015-Mar-07 14:29N 37°47' E 015°54'1815.2
2015-Mar-07 13:17N 37°57' E 015°35'1416.4
2015-Mar-07 12:27N 38°11' E 015°35'1112.5
2015-Mar-07 11:33N 38°22' E 015°36'36513.5
2015-Mar-06 08:28N 42°35' E 009°51'1913.9
2015-Mar-06 07:08N 42°53' E 009°43'914.2
2015-Mar-06 06:30N 43°01' E 009°39'1313.5
2015-Mar-06 05:33N 43°12' E 009°29'1514.7
2015-Mar-06 04:34N 43°25' E 009°19'1514.7
2015-Mar-06 03:33N 43°37' E 009°08'1514.9
2015-Mar-06 02:33N 43°50' E 008°57'1515.1
2015-Mar-06 01:33N 44°03' E 008°46'1515.4
2015-Mar-06 00:33N 44°16' E 008°36'5 4.8
2015-Mar-05 23:32N 44°19' E 008°30'0 0.0
2015-Mar-05 22:29N 44°19' E 008°30'0 0.0
2015-Mar-05 21:29N 44°19' E 008°30'0 0.0
2015-Mar-05 20:29N 44°19' E 008°30'0 0.0
2015-Mar-05 19:32N 44°19' E 008°30'0 0.0
2015-Mar-05 18:29N 44°19' E 008°30'0 0.0
2015-Mar-05 17:29N 44°19' E 008°30'0 0.0
2015-Mar-05 16:32N 44°19' E 008°30'0 0.0
2015-Mar-05 15:29N 44°19' E 008°30'0 0.0
2015-Mar-05 14:32N 44°19' E 008°30'0 0.0
2015-Mar-05 13:29N 44°19' E 008°30'0 0.0
2015-Mar-05 12:29N 44°19' E 008°30'0 0.0
2015-Mar-05 11:29N 44°19' E 008°30'0 0.0
2015-Mar-05 10:29N 44°19' E 008°30'0 0.0
2015-Mar-05 09:32N 44°19' E 008°30'0 0.0
2015-Mar-05 08:29N 44°19' E 008°30'0 0.0
2015-Mar-05 07:29N 44°19' E 008°30'0 0.0
2015-Mar-05 06:29N 44°19' E 008°30'0 0.0
2015-Mar-05 05:29N 44°19' E 008°30'2 2.4
2015-Mar-05 04:34N 44°18' E 008°33'1110.9
2015-Mar-05 03:33N 44°07' E 008°30'1414.3
2015-Mar-05 02:34N 43°54' E 008°22'4413.9
2015-Mar-04 23:25N 43°24' E 007°37'1214.3
2015-Mar-04 22:33N 43°16' E 007°25'1515.0
2015-Mar-04 21:33N 43°06' E 007°09'1515.0
2015-Mar-04 20:33N 42°57' E 006°53'1515.0
2015-Mar-04 19:33N 42°46' E 006°38'9713.7
2015-Mar-04 12:29N 41°43' E 004°60'1414.1
2015-Mar-04 11:29N 41°33' E 004°46'1614.3
2015-Mar-04 10:22N 41°23' E 004°30'1417.0
2015-Mar-04 09:32N 41°14' E 004°16'1514.3
2015-Mar-04 08:30N 41°04' E 004°01'1615.3
2015-Mar-04 07:28N 40°53' E 003°45'1415.0
2015-Mar-04 06:33N 40°45' E 003°31'1615.9
2015-Mar-04 05:33N 40°34' E 003°15'1615.5
2015-Mar-04 04:33N 40°24' E 002°60'1515.4
2015-Mar-04 03:33N 40°14' E 002°45'1615.6
2015-Mar-04 02:33N 40°04' E 002°29'1616.0
2015-Mar-04 01:33N 39°53' E 002°14'3216.0
2015-Mar-03 23:33N 39°32' E 001°42'1515.6
2015-Mar-03 22:33N 39°22' E 001°27'6615.6
2015-Mar-03 18:17N 38°37' E 000°25'1114.9
2015-Mar-03 17:33N 38°27' E 000°17'1515.3
2015-Mar-03 16:33N 38°15' E 000°05'1515.2
2015-Mar-03 15:33N 38°03' W 000°06'1515.5
2015-Mar-03 14:33N 37°50' W 000°17'1515.3
2015-Mar-03 13:33N 37°37' W 000°27'1514.8
2015-Mar-03 12:33N 37°26' W 000°40'1515.1
2015-Mar-03 11:33N 37°16' W 000°54'2015.4
2015-Mar-03 10:14N 37°02' W 001°13'20415.0
2015-Mar-02 20:34N 35°59' W 005°15'16915.4
2015-Mar-02 09:33N 36°25' W 008°42'1717.2
2015-Mar-02 08:33N 36°29' W 009°02'1818.1
2015-Mar-02 07:33N 36°38' W 009°22'1515.6
2015-Mar-02 06:33N 36°50' W 009°34'1615.5
2015-Mar-02 05:33N 37°05' W 009°38'1615.3
2015-Mar-02 04:30N 37°20' W 009°43'1515.2
2015-Mar-02 03:33N 37°35' W 009°47'1515.2
2015-Mar-02 02:33N 37°50' W 009°51'1615.3
2015-Mar-02 01:30N 38°05' W 009°55'1515.7
2015-Mar-02 00:33N 38°20' W 009°59'1515.5
2015-Mar-01 23:33N 38°35' W 010°03'1515.1
2015-Mar-01 22:33N 38°50' W 010°05'1514.9
2015-Mar-01 21:32N 39°05' W 010°06'  
Track history (hours):
 
Tides and Currents Weather Stations Pressure Air Temp Water Temp Dewpoint Dewpoint Depression Visibility Wind Speed Wind Dir Waves Ship Positions

Gentle Leader

Last reported at 2015-Mar-11 00:09 UTC. Time now 2015-Mar-30 04:29 UTC.
Position N 31°21' E 032°20'.
Warning: this ship's position is 19 days out of date.

Length 200 m; draft 9.1 m.

Type: Cargo ship. MMSI: 311003300.

Date/timePositionNaut miles runAvg speedWind from/ knotsBaromVisibWave heightAir tempDewpointWater temp
2015-Mar-11 00:09N 31°21' E 032°20'  
2015-Mar-07 14:29N 37°47' E 015°54'1815.2
2015-Mar-07 13:17N 37°57' E 015°35'1416.4
2015-Mar-07 12:27N 38°11' E 015°35'1112.5
2015-Mar-07 11:33N 38°22' E 015°36'36513.5
2015-Mar-06 08:28N 42°35' E 009°51'1913.9
2015-Mar-06 07:08N 42°53' E 009°43'914.2
2015-Mar-06 06:30N 43°01' E 009°39'1313.5
2015-Mar-06 05:33N 43°12' E 009°29'1514.7
2015-Mar-06 04:34N 43°25' E 009°19'1514.7
2015-Mar-06 03:33N 43°37' E 009°08'1514.9
2015-Mar-06 02:33N 43°50' E 008°57'1515.1
2015-Mar-06 01:33N 44°03' E 008°46'1515.4
2015-Mar-06 00:33N 44°16' E 008°36'5 4.8
2015-Mar-05 23:32N 44°19' E 008°30'0 0.0
2015-Mar-05 22:29N 44°19' E 008°30'0 0.0
2015-Mar-05 21:29N 44°19' E 008°30'0 0.0
2015-Mar-05 20:29N 44°19' E 008°30'0 0.0
2015-Mar-05 19:32N 44°19' E 008°30'0 0.0
2015-Mar-05 18:29N 44°19' E 008°30'0 0.0
2015-Mar-05 17:29N 44°19' E 008°30'0 0.0
2015-Mar-05 16:32N 44°19' E 008°30'0 0.0
2015-Mar-05 15:29N 44°19' E 008°30'0 0.0
2015-Mar-05 14:32N 44°19' E 008°30'0 0.0
2015-Mar-05 13:29N 44°19' E 008°30'0 0.0
2015-Mar-05 12:29N 44°19' E 008°30'0 0.0
2015-Mar-05 11:29N 44°19' E 008°30'0 0.0
2015-Mar-05 10:29N 44°19' E 008°30'0 0.0
2015-Mar-05 09:32N 44°19' E 008°30'0 0.0
2015-Mar-05 08:29N 44°19' E 008°30'0 0.0
2015-Mar-05 07:29N 44°19' E 008°30'0 0.0
2015-Mar-05 06:29N 44°19' E 008°30'0 0.0
2015-Mar-05 05:29N 44°19' E 008°30'2 2.4
2015-Mar-05 04:34N 44°18' E 008°33'1110.9
2015-Mar-05 03:33N 44°07' E 008°30'1414.3
2015-Mar-05 02:34N 43°54' E 008°22'4413.9
2015-Mar-04 23:25N 43°24' E 007°37'1214.3
2015-Mar-04 22:33N 43°16' E 007°25'1515.0
2015-Mar-04 21:33N 43°06' E 007°09'1515.0
2015-Mar-04 20:33N 42°57' E 006°53'1515.0
2015-Mar-04 19:33N 42°46' E 006°38'9713.7
2015-Mar-04 12:29N 41°43' E 004°60'1414.1
2015-Mar-04 11:29N 41°33' E 004°46'1614.3
2015-Mar-04 10:22N 41°23' E 004°30'1417.0
2015-Mar-04 09:32N 41°14' E 004°16'1514.3
2015-Mar-04 08:30N 41°04' E 004°01'1615.3
2015-Mar-04 07:28N 40°53' E 003°45'1415.0
2015-Mar-04 06:33N 40°45' E 003°31'1615.9
2015-Mar-04 05:33N 40°34' E 003°15'1615.5
2015-Mar-04 04:33N 40°24' E 002°60'1515.4
2015-Mar-04 03:33N 40°14' E 002°45'1615.6
2015-Mar-04 02:33N 40°04' E 002°29'1616.0
2015-Mar-04 01:33N 39°53' E 002°14'3216.0
2015-Mar-03 23:33N 39°32' E 001°42'1515.6
2015-Mar-03 22:33N 39°22' E 001°27'6615.6
2015-Mar-03 18:17N 38°37' E 000°25'1114.9
2015-Mar-03 17:33N 38°27' E 000°17'1515.3
2015-Mar-03 16:33N 38°15' E 000°05'1515.2
2015-Mar-03 15:33N 38°03' W 000°06'1515.5
2015-Mar-03 14:33N 37°50' W 000°17'1515.3
2015-Mar-03 13:33N 37°37' W 000°27'1514.8
2015-Mar-03 12:33N 37°26' W 000°40'1515.1
2015-Mar-03 11:33N 37°16' W 000°54'2015.4
2015-Mar-03 10:14N 37°02' W 001°13'20415.0
2015-Mar-02 20:34N 35°59' W 005°15'16915.4
2015-Mar-02 09:33N 36°25' W 008°42'1717.2
2015-Mar-02 08:33N 36°29' W 009°02'1818.1
2015-Mar-02 07:33N 36°38' W 009°22'1515.6
2015-Mar-02 06:33N 36°50' W 009°34'1615.5
2015-Mar-02 05:33N 37°05' W 009°38'1615.3
2015-Mar-02 04:30N 37°20' W 009°43'1515.2
2015-Mar-02 03:33N 37°35' W 009°47'1515.2
2015-Mar-02 02:33N 37°50' W 009°51'1615.3
2015-Mar-02 01:30N 38°05' W 009°55'1515.7
2015-Mar-02 00:33N 38°20' W 009°59'1515.5
2015-Mar-01 23:33N 38°35' W 010°03'1515.1
2015-Mar-01 22:33N 38°50' W 010°05'1514.9
2015-Mar-01 21:32N 39°05' W 010°06'  

Dump ship's entire track history